sensor_id;sensor_type;location;lat;lon;timestamp;pressure;altitude;pressure_sealevel;temperature;humidity
1652;BME280;823;49.028;8.454;2023-05-14T00:00:27;100470.88;;;17.23;56.18
1652;BME280;823;49.028;8.454;2023-05-14T00:05:28;100458.16;;;17.16;55.88
1652;BME280;823;49.028;8.454;2023-05-14T00:10:28;100467.97;;;17.13;55.44
1652;BME280;823;49.028;8.454;2023-05-14T00:15:28;100457.22;;;17.17;55.81
1652;BME280;823;49.028;8.454;2023-05-14T00:20:29;100447.69;;;17.16;55.82
1652;BME280;823;49.028;8.454;2023-05-14T00:25:29;100444.69;;;17.08;55.64
1652;BME280;823;49.028;8.454;2023-05-14T00:30:29;100445.81;;;17.04;56.03
1652;BME280;823;49.028;8.454;2023-05-14T00:35:30;100440.28;;;16.94;56.28
1652;BME280;823;49.028;8.454;2023-05-14T00:40:30;100442.56;;;17.00;56.14
1652;BME280;823;49.028;8.454;2023-05-14T00:45:31;100446.19;;;16.98;56.28
1652;BME280;823;49.028;8.454;2023-05-14T00:50:32;100439.66;;;16.91;56.82
1652;BME280;823;49.028;8.454;2023-05-14T00:55:33;100435.41;;;16.88;56.84
1652;BME280;823;49.028;8.454;2023-05-14T01:00:34;100432.78;;;16.88;57.28
1652;BME280;823;49.028;8.454;2023-05-14T01:05:57;100433.03;;;16.99;57.21
1652;BME280;823;49.028;8.454;2023-05-14T01:11:06;100428.72;;;16.98;57.12
1652;BME280;823;49.028;8.454;2023-05-14T01:16:11;100426.41;;;16.94;57.12
1652;BME280;823;49.028;8.454;2023-05-14T01:21:38;100427.13;;;16.96;56.73
1652;BME280;823;49.028;8.454;2023-05-14T01:26:41;100429.50;;;16.84;57.85
1652;BME280;823;49.028;8.454;2023-05-14T01:31:43;100428.00;;;16.80;57.81
1652;BME280;823;49.028;8.454;2023-05-14T01:36:46;100434.00;;;16.82;57.79
1652;BME280;823;49.028;8.454;2023-05-14T01:41:47;100431.53;;;16.79;57.57
1652;BME280;823;49.028;8.454;2023-05-14T01:46:48;100428.19;;;16.77;57.80
1652;BME280;823;49.028;8.454;2023-05-14T01:51:48;100431.16;;;16.71;57.59
1652;BME280;823;49.028;8.454;2023-05-14T01:56:48;100426.38;;;16.63;57.90
1652;BME280;823;49.028;8.454;2023-05-14T02:01:48;100426.81;;;16.56;58.17
1652;BME280;823;49.028;8.454;2023-05-14T02:06:49;100418.97;;;16.56;58.19
1652;BME280;823;49.028;8.454;2023-05-14T02:11:50;100421.38;;;16.44;58.77
1652;BME280;823;49.028;8.454;2023-05-14T02:16:50;100416.66;;;16.35;59.16
1652;BME280;823;49.028;8.454;2023-05-14T02:21:50;100411.31;;;16.22;59.47
1652;BME280;823;49.028;8.454;2023-05-14T02:26:51;100417.91;;;16.13;58.98
1652;BME280;823;49.028;8.454;2023-05-14T02:31:51;100413.59;;;16.12;59.13
1652;BME280;823;49.028;8.454;2023-05-14T02:36:51;100411.50;;;16.03;59.39
1652;BME280;823;49.028;8.454;2023-05-14T02:41:52;100413.19;;;16.04;59.52
1652;BME280;823;49.028;8.454;2023-05-14T02:46:52;100424.22;;;16.09;59.39
1652;BME280;823;49.028;8.454;2023-05-14T02:51:52;100421.78;;;16.06;59.62
1652;BME280;823;49.028;8.454;2023-05-14T02:56:53;100429.34;;;16.11;59.64
1652;BME280;823;49.028;8.454;2023-05-14T03:01:53;100430.34;;;16.08;59.90
1652;BME280;823;49.028;8.454;2023-05-14T03:06:54;100421.19;;;16.01;59.92
1652;BME280;823;49.028;8.454;2023-05-14T03:11:54;100420.00;;;16.07;59.96
1652;BME280;823;49.028;8.454;2023-05-14T03:16:54;100425.97;;;16.09;60.13
1652;BME280;823;49.028;8.454;2023-05-14T03:21:55;100421.00;;;16.04;60.06
1652;BME280;823;49.028;8.454;2023-05-14T03:26:55;100426.81;;;16.09;60.05
1652;BME280;823;49.028;8.454;2023-05-14T03:31:55;100419.72;;;16.11;59.71
1652;BME280;823;49.028;8.454;2023-05-14T03:36:56;100425.91;;;16.10;59.56
1652;BME280;823;49.028;8.454;2023-05-14T03:41:56;100418.56;;;16.01;59.20
1652;BME280;823;49.028;8.454;2023-05-14T03:46:57;100421.44;;;15.96;58.72
1652;BME280;823;49.028;8.454;2023-05-14T03:51:58;100422.78;;;15.88;58.56
1652;BME280;823;49.028;8.454;2023-05-14T03:56:58;100426.69;;;15.79;58.74
1652;BME280;823;49.028;8.454;2023-05-14T04:01:58;100427.53;;;15.63;58.91
1652;BME280;823;49.028;8.454;2023-05-14T04:06:59;100414.59;;;15.62;59.06
1652;BME280;823;49.028;8.454;2023-05-14T04:11:59;100420.72;;;15.61;59.05
1652;BME280;823;49.028;8.454;2023-05-14T04:17:00;100416.66;;;15.55;58.96
1652;BME280;823;49.028;8.454;2023-05-14T04:22:00;100424.56;;;15.54;58.75
1652;BME280;823;49.028;8.454;2023-05-14T04:27:00;100430.22;;;15.62;58.66
1652;BME280;823;49.028;8.454;2023-05-14T04:32:00;100436.19;;;15.64;58.92
1652;BME280;823;49.028;8.454;2023-05-14T04:37:01;100438.03;;;15.62;58.76
1652;BME280;823;49.028;8.454;2023-05-14T04:42:03;100432.84;;;15.62;58.44
1652;BME280;823;49.028;8.454;2023-05-14T04:47:03;100436.88;;;15.68;58.34
1652;BME280;823;49.028;8.454;2023-05-14T04:52:05;100437.69;;;15.68;57.65
1652;BME280;823;49.028;8.454;2023-05-14T04:57:06;100442.84;;;15.70;56.88
1652;BME280;823;49.028;8.454;2023-05-14T05:02:06;100439.22;;;15.72;57.05
1652;BME280;823;49.028;8.454;2023-05-14T05:07:06;100440.22;;;15.70;57.25
1652;BME280;823;49.028;8.454;2023-05-14T05:12:07;100440.91;;;15.73;56.76
1652;BME280;823;49.028;8.454;2023-05-14T05:17:07;100442.75;;;15.71;56.73
1652;BME280;823;49.028;8.454;2023-05-14T05:22:08;100445.03;;;15.77;56.24
1652;BME280;823;49.028;8.454;2023-05-14T05:27:08;100441.66;;;15.75;56.43
1652;BME280;823;49.028;8.454;2023-05-14T05:32:09;100441.38;;;15.81;56.38
1652;BME280;823;49.028;8.454;2023-05-14T05:37:09;100437.00;;;15.82;55.94
1652;BME280;823;49.028;8.454;2023-05-14T05:42:11;100434.97;;;15.87;55.62
1652;BME280;823;49.028;8.454;2023-05-14T05:47:12;100436.41;;;16.09;55.53
1652;BME280;823;49.028;8.454;2023-05-14T05:52:12;100435.13;;;16.32;55.61
1652;BME280;823;49.028;8.454;2023-05-14T05:57:12;100435.81;;;16.66;56.11
1652;BME280;823;49.028;8.454;2023-05-14T06:02:13;100436.75;;;16.95;54.71
1652;BME280;823;49.028;8.454;2023-05-14T06:07:13;100425.28;;;16.98;52.73
1652;BME280;823;49.028;8.454;2023-05-14T06:12:13;100425.19;;;17.14;52.82
1652;BME280;823;49.028;8.454;2023-05-14T06:17:14;100424.47;;;17.26;52.66
1652;BME280;823;49.028;8.454;2023-05-14T06:22:14;100427.81;;;17.43;52.01
1652;BME280;823;49.028;8.454;2023-05-14T06:27:15;100424.91;;;17.62;51.48
1652;BME280;823;49.028;8.454;2023-05-14T06:32:15;100422.88;;;17.67;51.39
1652;BME280;823;49.028;8.454;2023-05-14T06:37:16;100425.00;;;17.75;50.79
1652;BME280;823;49.028;8.454;2023-05-14T06:42:17;100425.34;;;17.83;51.41
1652;BME280;823;49.028;8.454;2023-05-14T06:47:17;100420.97;;;17.98;51.08
1652;BME280;823;49.028;8.454;2023-05-14T06:52:18;100420.19;;;18.10;50.29
1652;BME280;823;49.028;8.454;2023-05-14T06:57:18;100419.19;;;18.26;49.30
1652;BME280;823;49.028;8.454;2023-05-14T07:02:18;100416.69;;;18.37;50.13
1652;BME280;823;49.028;8.454;2023-05-14T07:07:18;100414.41;;;18.45;50.18
1652;BME280;823;49.028;8.454;2023-05-14T07:12:20;100419.44;;;18.48;49.03
1652;BME280;823;49.028;8.454;2023-05-14T07:17:20;100418.63;;;18.48;49.01
1652;BME280;823;49.028;8.454;2023-05-14T07:22:21;100411.09;;;18.56;48.67
1652;BME280;823;49.028;8.454;2023-05-14T07:27:21;100418.47;;;18.64;49.27
1652;BME280;823;49.028;8.454;2023-05-14T07:32:21;100412.59;;;18.73;49.36
1652;BME280;823;49.028;8.454;2023-05-14T07:37:24;100405.41;;;18.89;48.33
1652;BME280;823;49.028;8.454;2023-05-14T07:42:25;100393.97;;;19.03;47.71
1652;BME280;823;49.028;8.454;2023-05-14T07:47:26;100397.78;;;19.12;47.55
1652;BME280;823;49.028;8.454;2023-05-14T07:52:26;100389.16;;;19.10;46.91
1652;BME280;823;49.028;8.454;2023-05-14T07:57:26;100384.22;;;19.18;47.28
1652;BME280;823;49.028;8.454;2023-05-14T08:02:27;100373.41;;;19.36;48.06
1652;BME280;823;49.028;8.454;2023-05-14T08:07:27;100375.19;;;19.48;46.40
1652;BME280;823;49.028;8.454;2023-05-14T08:12:29;100372.56;;;19.48;46.99
1652;BME280;823;49.028;8.454;2023-05-14T08:17:29;100376.59;;;19.65;46.02
1652;BME280;823;49.028;8.454;2023-05-14T08:22:29;100367.66;;;19.68;45.50
1652;BME280;823;49.028;8.454;2023-05-14T08:27:30;100360.59;;;19.81;45.69
1652;BME280;823;49.028;8.454;2023-05-14T08:32:30;100361.66;;;20.03;45.30
1652;BME280;823;49.028;8.454;2023-05-14T08:37:30;100354.84;;;20.00;46.19
1652;BME280;823;49.028;8.454;2023-05-14T08:42:31;100355.81;;;20.35;45.35
1652;BME280;823;49.028;8.454;2023-05-14T08:47:32;100358.63;;;20.56;44.91
1652;BME280;823;49.028;8.454;2023-05-14T08:52:33;100353.91;;;20.72;43.87
1652;BME280;823;49.028;8.454;2023-05-14T08:57:34;100352.25;;;20.71;43.47
1652;BME280;823;49.028;8.454;2023-05-14T09:02:36;100345.53;;;20.67;44.04
1652;BME280;823;49.028;8.454;2023-05-14T09:07:36;100341.78;;;20.58;42.76
1652;BME280;823;49.028;8.454;2023-05-14T09:12:36;100340.34;;;20.54;43.05
1652;BME280;823;49.028;8.454;2023-05-14T09:17:37;100331.06;;;20.62;41.36
1652;BME280;823;49.028;8.454;2023-05-14T09:22:37;100321.06;;;20.78;41.74
1652;BME280;823;49.028;8.454;2023-05-14T09:27:38;100322.03;;;20.88;40.30
1652;BME280;823;49.028;8.454;2023-05-14T09:32:40;100318.16;;;21.26;40.04
1652;BME280;823;49.028;8.454;2023-05-14T09:37:45;100319.72;;;21.52;41.36
1652;BME280;823;49.028;8.454;2023-05-14T09:42:45;100311.94;;;21.62;39.57
1652;BME280;823;49.028;8.454;2023-05-14T09:47:48;100318.00;;;22.06;38.01
1652;BME280;823;49.028;8.454;2023-05-14T09:52:48;100304.75;;;22.17;37.13
1652;BME280;823;49.028;8.454;2023-05-14T09:57:48;100295.91;;;22.39;36.68
1652;BME280;823;49.028;8.454;2023-05-14T10:02:49;100310.75;;;22.61;37.74
1652;BME280;823;49.028;8.454;2023-05-14T10:07:53;100307.28;;;22.92;35.85
1652;BME280;823;49.028;8.454;2023-05-14T10:12:57;100298.72;;;23.09;37.22
1652;BME280;823;49.028;8.454;2023-05-14T10:18:03;100297.75;;;23.10;36.32
1652;BME280;823;49.028;8.454;2023-05-14T10:23:07;100296.31;;;22.96;36.23
1652;BME280;823;49.028;8.454;2023-05-14T10:28:08;100293.25;;;22.91;35.91
1652;BME280;823;49.028;8.454;2023-05-14T10:33:11;100292.25;;;22.83;36.30
1652;BME280;823;49.028;8.454;2023-05-14T10:38:13;100291.13;;;22.75;36.62
1652;BME280;823;49.028;8.454;2023-05-14T10:43:15;100296.13;;;22.78;36.59
1652;BME280;823;49.028;8.454;2023-05-14T10:48:16;100281.78;;;22.71;38.03
1652;BME280;823;49.028;8.454;2023-05-14T10:53:18;100283.50;;;22.51;37.26
1652;BME280;823;49.028;8.454;2023-05-14T10:58:19;100285.06;;;22.64;37.38
1652;BME280;823;49.028;8.454;2023-05-14T11:03:20;100274.56;;;22.73;38.13
1652;BME280;823;49.028;8.454;2023-05-14T11:08:21;100270.66;;;22.68;37.16
1652;BME280;823;49.028;8.454;2023-05-14T11:13:21;100267.13;;;22.78;37.47
1652;BME280;823;49.028;8.454;2023-05-14T11:18:30;100268.38;;;22.84;38.11
1652;BME280;823;49.028;8.454;2023-05-14T11:23:30;100252.19;;;22.89;37.58
1652;BME280;823;49.028;8.454;2023-05-14T11:28:31;100263.44;;;22.60;36.87
1652;BME280;823;49.028;8.454;2023-05-14T11:33:31;100257.94;;;22.73;37.40
1652;BME280;823;49.028;8.454;2023-05-14T11:38:31;100262.72;;;22.89;36.82
1652;BME280;823;49.028;8.454;2023-05-14T11:43:35;100263.47;;;23.10;38.41
1652;BME280;823;49.028;8.454;2023-05-14T11:48:35;100254.69;;;22.90;37.05
1652;BME280;823;49.028;8.454;2023-05-14T11:53:35;100246.59;;;22.82;37.58
1652;BME280;823;49.028;8.454;2023-05-14T11:58:36;100249.97;;;23.04;37.48
1652;BME280;823;49.028;8.454;2023-05-14T12:03:36;100237.00;;;23.32;37.07
1652;BME280;823;49.028;8.454;2023-05-14T12:08:36;100241.31;;;23.42;36.76
1652;BME280;823;49.028;8.454;2023-05-14T12:13:38;100229.53;;;23.37;36.56
1652;BME280;823;49.028;8.454;2023-05-14T12:18:39;100235.06;;;23.24;36.40
1652;BME280;823;49.028;8.454;2023-05-14T12:23:39;100228.53;;;23.28;36.74
1652;BME280;823;49.028;8.454;2023-05-14T12:28:39;100223.06;;;23.10;35.55
1652;BME280;823;49.028;8.454;2023-05-14T12:33:42;100219.09;;;23.25;36.30
1652;BME280;823;49.028;8.454;2023-05-14T12:38:42;100212.16;;;23.24;36.37
1652;BME280;823;49.028;8.454;2023-05-14T12:43:43;100207.28;;;23.29;36.78
1652;BME280;823;49.028;8.454;2023-05-14T12:48:44;100213.16;;;23.33;37.22
1652;BME280;823;49.028;8.454;2023-05-14T12:53:44;100197.16;;;23.35;36.05
1652;BME280;823;49.028;8.454;2023-05-14T12:58:46;100200.34;;;23.28;36.24
1652;BME280;823;49.028;8.454;2023-05-14T13:03:46;100193.81;;;23.33;35.42
1652;BME280;823;49.028;8.454;2023-05-14T13:08:46;100174.25;;;23.45;35.13
1652;BME280;823;49.028;8.454;2023-05-14T13:13:47;100173.94;;;23.58;36.29
1652;BME280;823;49.028;8.454;2023-05-14T13:18:47;100168.81;;;23.46;37.54
1652;BME280;823;49.028;8.454;2023-05-14T13:23:48;100166.59;;;23.61;35.40
1652;BME280;823;49.028;8.454;2023-05-14T13:28:48;100154.31;;;23.80;35.20
1652;BME280;823;49.028;8.454;2023-05-14T13:33:48;100158.38;;;23.94;34.95
1652;BME280;823;49.028;8.454;2023-05-14T13:38:48;100153.75;;;23.86;34.27
1652;BME280;823;49.028;8.454;2023-05-14T13:43:49;100140.59;;;23.76;35.37
1652;BME280;823;49.028;8.454;2023-05-14T13:48:49;100131.72;;;23.68;35.74
1652;BME280;823;49.028;8.454;2023-05-14T13:53:49;100123.94;;;23.56;35.35
1652;BME280;823;49.028;8.454;2023-05-14T13:58:50;100122.53;;;23.62;34.80
1652;BME280;823;49.028;8.454;2023-05-14T14:03:50;100117.13;;;23.44;35.04
1652;BME280;823;49.028;8.454;2023-05-14T14:08:50;100118.41;;;23.59;35.95
1652;BME280;823;49.028;8.454;2023-05-14T14:13:51;100109.75;;;23.57;35.24
1652;BME280;823;49.028;8.454;2023-05-14T14:18:52;100101.00;;;23.67;35.85
1652;BME280;823;49.028;8.454;2023-05-14T14:23:52;100095.50;;;23.97;35.32
1652;BME280;823;49.028;8.454;2023-05-14T14:28:52;100089.66;;;24.04;35.88
1652;BME280;823;49.028;8.454;2023-05-14T14:33:53;100099.63;;;24.10;35.71
1652;BME280;823;49.028;8.454;2023-05-14T14:38:53;100094.84;;;23.86;34.83
1652;BME280;823;49.028;8.454;2023-05-14T14:43:53;100088.06;;;23.73;35.40
1652;BME280;823;49.028;8.454;2023-05-14T14:48:54;100082.81;;;23.63;34.69
1652;BME280;823;49.028;8.454;2023-05-14T14:53:54;100080.75;;;23.48;34.15
1652;BME280;823;49.028;8.454;2023-05-14T14:58:54;100076.41;;;23.56;33.90
1652;BME280;823;49.028;8.454;2023-05-14T15:03:55;100082.72;;;23.45;34.07
1652;BME280;823;49.028;8.454;2023-05-14T15:08:55;100071.56;;;23.52;34.37
1652;BME280;823;49.028;8.454;2023-05-14T15:13:55;100075.03;;;23.52;34.70
1652;BME280;823;49.028;8.454;2023-05-14T15:18:56;100077.88;;;23.21;35.19
1652;BME280;823;49.028;8.454;2023-05-14T15:23:56;100080.66;;;23.20;35.77
1652;BME280;823;49.028;8.454;2023-05-14T15:28:56;100076.34;;;23.19;36.17
1652;BME280;823;49.028;8.454;2023-05-14T15:33:58;100071.75;;;23.01;35.77
1652;BME280;823;49.028;8.454;2023-05-14T15:38:58;100073.56;;;23.20;35.63
1652;BME280;823;49.028;8.454;2023-05-14T15:43:59;100072.59;;;23.31;36.88
1652;BME280;823;49.028;8.454;2023-05-14T15:48:59;100073.53;;;23.10;36.32
1652;BME280;823;49.028;8.454;2023-05-14T15:53:59;100081.91;;;23.16;35.62
1652;BME280;823;49.028;8.454;2023-05-14T15:59:00;100073.41;;;23.02;36.06
1652;BME280;823;49.028;8.454;2023-05-14T16:04:00;100069.94;;;22.82;36.69
1652;BME280;823;49.028;8.454;2023-05-14T16:09:00;100069.50;;;22.67;37.90
1652;BME280;823;49.028;8.454;2023-05-14T16:14:02;100062.81;;;22.43;37.85
1652;BME280;823;49.028;8.454;2023-05-14T16:19:02;100054.50;;;22.48;38.02
1652;BME280;823;49.028;8.454;2023-05-14T16:24:02;100061.16;;;22.52;38.44
1652;BME280;823;49.028;8.454;2023-05-14T16:29:05;100057.56;;;22.73;37.62
1652;BME280;823;49.028;8.454;2023-05-14T16:34:05;100054.53;;;22.77;37.33
1652;BME280;823;49.028;8.454;2023-05-14T16:39:05;100057.00;;;22.59;37.45
1652;BME280;823;49.028;8.454;2023-05-14T16:44:07;100062.56;;;22.56;37.35
1652;BME280;823;49.028;8.454;2023-05-14T16:49:07;100058.94;;;22.48;37.33
1652;BME280;823;49.028;8.454;2023-05-14T16:54:08;100051.41;;;22.43;37.78
1652;BME280;823;49.028;8.454;2023-05-14T16:59:08;100063.72;;;22.33;37.95
1652;BME280;823;49.028;8.454;2023-05-14T17:04:09;100061.06;;;22.23;37.79
1652;BME280;823;49.028;8.454;2023-05-14T17:09:09;100051.63;;;22.20;37.71
1652;BME280;823;49.028;8.454;2023-05-14T17:14:10;100064.34;;;22.15;37.01
1652;BME280;823;49.028;8.454;2023-05-14T17:19:10;100055.66;;;22.24;38.40
1652;BME280;823;49.028;8.454;2023-05-14T17:24:10;100052.25;;;22.34;37.97
1652;BME280;823;49.028;8.454;2023-05-14T17:29:11;100059.19;;;22.35;38.55
1652;BME280;823;49.028;8.454;2023-05-14T17:34:11;100052.81;;;22.47;38.03
1652;BME280;823;49.028;8.454;2023-05-14T17:39:11;100058.25;;;22.55;38.04
1652;BME280;823;49.028;8.454;2023-05-14T17:44:12;100058.00;;;22.58;37.70
1652;BME280;823;49.028;8.454;2023-05-14T17:49:12;100061.03;;;22.64;36.82
1652;BME280;823;49.028;8.454;2023-05-14T17:54:13;100065.34;;;22.65;36.80
1652;BME280;823;49.028;8.454;2023-05-14T17:59:13;100073.53;;;22.71;37.23
1652;BME280;823;49.028;8.454;2023-05-14T18:04:13;100066.16;;;22.65;37.71
1652;BME280;823;49.028;8.454;2023-05-14T18:09:14;100076.16;;;22.61;37.12
1652;BME280;823;49.028;8.454;2023-05-14T18:14:14;100079.88;;;22.49;37.72
1652;BME280;823;49.028;8.454;2023-05-14T18:19:16;100078.28;;;22.27;37.94
1652;BME280;823;49.028;8.454;2023-05-14T18:24:16;100092.91;;;22.10;38.36
1652;BME280;823;49.028;8.454;2023-05-14T18:29:17;100088.78;;;21.86;40.13
1652;BME280;823;49.028;8.454;2023-05-14T18:34:17;100088.16;;;21.52;40.66
1652;BME280;823;49.028;8.454;2023-05-14T18:39:17;100093.44;;;21.40;42.93
1652;BME280;823;49.028;8.454;2023-05-14T18:44:18;100091.41;;;21.44;42.50
1652;BME280;823;49.028;8.454;2023-05-14T18:49:18;100089.03;;;21.41;42.98
1652;BME280;823;49.028;8.454;2023-05-14T18:54:18;100089.09;;;21.30;42.69
1652;BME280;823;49.028;8.454;2023-05-14T18:59:19;100103.47;;;21.25;43.41
1652;BME280;823;49.028;8.454;2023-05-14T19:04:19;100110.44;;;21.15;43.75
1652;BME280;823;49.028;8.454;2023-05-14T19:09:20;100101.66;;;21.05;44.32
1652;BME280;823;49.028;8.454;2023-05-14T19:14:20;100106.09;;;20.93;45.43
1652;BME280;823;49.028;8.454;2023-05-14T19:19:20;100111.66;;;20.79;46.57
1652;BME280;823;49.028;8.454;2023-05-14T19:24:21;100121.22;;;20.46;47.64
1652;BME280;823;49.028;8.454;2023-05-14T19:29:21;100122.91;;;20.35;48.23
1652;BME280;823;49.028;8.454;2023-05-14T19:34:21;100132.44;;;20.25;49.33
1652;BME280;823;49.028;8.454;2023-05-14T19:39:22;100129.09;;;20.12;49.50
1652;BME280;823;49.028;8.454;2023-05-14T19:44:22;100129.22;;;19.99;50.59
1652;BME280;823;49.028;8.454;2023-05-14T19:49:22;100128.47;;;19.85;51.38
1652;BME280;823;49.028;8.454;2023-05-14T19:54:23;100136.31;;;19.74;51.75
1652;BME280;823;49.028;8.454;2023-05-14T19:59:23;100132.22;;;19.70;52.38
1652;BME280;823;49.028;8.454;2023-05-14T20:04:23;100128.88;;;19.56;52.81
1652;BME280;823;49.028;8.454;2023-05-14T20:09:25;100139.44;;;19.44;53.20
1652;BME280;823;49.028;8.454;2023-05-14T20:14:25;100136.78;;;19.32;53.67
1652;BME280;823;49.028;8.454;2023-05-14T20:19:25;100130.03;;;19.17;54.64
1652;BME280;823;49.028;8.454;2023-05-14T20:24:27;100124.06;;;19.15;54.64
1652;BME280;823;49.028;8.454;2023-05-14T20:29:27;100130.94;;;19.04;54.49
1652;BME280;823;49.028;8.454;2023-05-14T20:34:27;100132.09;;;19.00;54.64
1652;BME280;823;49.028;8.454;2023-05-14T20:39:28;100127.22;;;18.96;54.71
1652;BME280;823;49.028;8.454;2023-05-14T20:44:28;100118.53;;;18.82;55.15
1652;BME280;823;49.028;8.454;2023-05-14T20:49:28;100106.34;;;18.81;54.79
1652;BME280;823;49.028;8.454;2023-05-14T20:54:29;100111.44;;;18.71;55.22
1652;BME280;823;49.028;8.454;2023-05-14T20:59:29;100117.88;;;18.54;55.96
1652;BME280;823;49.028;8.454;2023-05-14T21:04:29;100122.41;;;18.40;56.03
1652;BME280;823;49.028;8.454;2023-05-14T21:09:30;100108.41;;;18.28;55.51
1652;BME280;823;49.028;8.454;2023-05-14T21:14:30;100108.19;;;18.31;55.17
1652;BME280;823;49.028;8.454;2023-05-14T21:19:30;100116.59;;;18.10;55.06
1652;BME280;823;49.028;8.454;2023-05-14T21:24:31;100117.22;;;18.01;55.54
1652;BME280;823;49.028;8.454;2023-05-14T21:29:31;100118.06;;;18.01;55.30
1652;BME280;823;49.028;8.454;2023-05-14T21:34:31;100126.44;;;17.94;56.08
1652;BME280;823;49.028;8.454;2023-05-14T21:39:32;100119.91;;;17.86;55.58
1652;BME280;823;49.028;8.454;2023-05-14T21:44:32;100119.06;;;17.86;55.65
1652;BME280;823;49.028;8.454;2023-05-14T21:49:32;100116.53;;;17.84;55.82
1652;BME280;823;49.028;8.454;2023-05-14T21:54:32;100121.56;;;17.75;55.70
1652;BME280;823;49.028;8.454;2023-05-14T21:59:34;100119.38;;;17.81;55.66
1652;BME280;823;49.028;8.454;2023-05-14T22:04:34;100121.59;;;17.87;55.87
1652;BME280;823;49.028;8.454;2023-05-14T22:09:34;100105.91;;;17.87;55.74
1652;BME280;823;49.028;8.454;2023-05-14T22:14:35;100107.66;;;17.87;56.01
1652;BME280;823;49.028;8.454;2023-05-14T22:19:35;100103.28;;;17.87;56.06
1652;BME280;823;49.028;8.454;2023-05-14T22:24:35;100095.63;;;17.84;55.38
1652;BME280;823;49.028;8.454;2023-05-14T22:29:36;100101.69;;;17.72;55.53
1652;BME280;823;49.028;8.454;2023-05-14T22:34:36;100093.31;;;17.67;55.76
1652;BME280;823;49.028;8.454;2023-05-14T22:39:36;100094.78;;;17.71;55.65
1652;BME280;823;49.028;8.454;2023-05-14T22:44:37;100092.56;;;17.65;55.63
1652;BME280;823;49.028;8.454;2023-05-14T22:49:38;100087.13;;;17.55;55.63
1652;BME280;823;49.028;8.454;2023-05-14T22:54:39;100081.91;;;17.55;55.34
1652;BME280;823;49.028;8.454;2023-05-14T22:59:39;100069.25;;;17.49;55.86
1652;BME280;823;49.028;8.454;2023-05-14T23:04:39;100073.41;;;17.26;55.91
1652;BME280;823;49.028;8.454;2023-05-14T23:09:40;100081.00;;;17.16;56.57
1652;BME280;823;49.028;8.454;2023-05-14T23:14:40;100082.16;;;17.25;56.89
1652;BME280;823;49.028;8.454;2023-05-14T23:19:41;100076.16;;;17.10;56.88
1652;BME280;823;49.028;8.454;2023-05-14T23:24:41;100076.59;;;17.16;57.23
1652;BME280;823;49.028;8.454;2023-05-14T23:29:42;100074.00;;;17.16;57.40
1652;BME280;823;49.028;8.454;2023-05-14T23:34:42;100071.38;;;17.16;56.96
1652;BME280;823;49.028;8.454;2023-05-14T23:39:43;100063.31;;;17.07;57.40
1652;BME280;823;49.028;8.454;2023-05-14T23:44:43;100067.91;;;17.03;57.87
1652;BME280;823;49.028;8.454;2023-05-14T23:49:44;100048.66;;;17.04;57.58
1652;BME280;823;49.028;8.454;2023-05-14T23:54:44;100046.59;;;17.09;57.02
1652;BME280;823;49.028;8.454;2023-05-14T23:59:44;100044.47;;;17.01;57.12
